sensor_id;sensor_type;location;lat;lon;timestamp;temperature;humidity
15239;DHT22;7722;53.274;9.500;2024-01-06T00:02:24;0.50;99.90
15239;DHT22;7722;53.274;9.500;2024-01-06T00:04:52;0.40;99.90
15239;DHT22;7722;53.274;9.500;2024-01-06T00:07:19;0.40;99.90
15239;DHT22;7722;53.274;9.500;2024-01-06T00:09:47;0.50;99.90
15239;DHT22;7722;53.274;9.500;2024-01-06T00:12:15;0.40;99.90
15239;DHT22;7722;53.274;9.500;2024-01-06T00:14:44;0.40;99.90
15239;DHT22;7722;53.274;9.500;2024-01-06T00:17:11;0.40;99.90
15239;DHT22;7722;53.274;9.500;2024-01-06T00:19:38;0.50;99.90
15239;DHT22;7722;53.274;9.500;2024-01-06T00:22:05;0.50;99.90
15239;DHT22;7722;53.274;9.500;2024-01-06T00:24:32;0.40;99.90
15239;DHT22;7722;53.274;9.500;2024-01-06T00:27:00;0.40;99.90
15239;DHT22;7722;53.274;9.500;2024-01-06T00:29:28;0.50;99.90
15239;DHT22;7722;53.274;9.500;2024-01-06T00:31:55;0.40;99.90
15239;DHT22;7722;53.274;9.500;2024-01-06T00:34:23;0.40;99.90
15239;DHT22;7722;53.274;9.500;2024-01-06T00:36:50;0.50;99.90
15239;DHT22;7722;53.274;9.500;2024-01-06T00:39:17;0.40;99.90
15239;DHT22;7722;53.274;9.500;2024-01-06T00:41:44;0.40;99.90
15239;DHT22;7722;53.274;9.500;2024-01-06T00:44:11;0.40;99.90
15239;DHT22;7722;53.274;9.500;2024-01-06T00:46:40;0.40;99.90
15239;DHT22;7722;53.274;9.500;2024-01-06T00:49:07;0.50;99.90
15239;DHT22;7722;53.274;9.500;2024-01-06T00:54:22;0.50;99.90
15239;DHT22;7722;53.274;9.500;2024-01-06T00:56:49;0.40;99.90
15239;DHT22;7722;53.274;9.500;2024-01-06T00:59:16;0.40;99.90
15239;DHT22;7722;53.274;9.500;2024-01-06T01:01:45;0.40;99.90
15239;DHT22;7722;53.274;9.500;2024-01-06T01:04:12;0.40;99.90
15239;DHT22;7722;53.274;9.500;2024-01-06T01:06:39;0.50;99.90
15239;DHT22;7722;53.274;9.500;2024-01-06T01:09:06;0.50;99.90
15239;DHT22;7722;53.274;9.500;2024-01-06T01:11:36;0.40;99.90
15239;DHT22;7722;53.274;9.500;2024-01-06T01:14:03;0.50;99.90
15239;DHT22;7722;53.274;9.500;2024-01-06T01:16:30;0.50;99.90
15239;DHT22;7722;53.274;9.500;2024-01-06T01:18:59;0.50;99.90
15239;DHT22;7722;53.274;9.500;2024-01-06T01:21:27;0.50;99.90
15239;DHT22;7722;53.274;9.500;2024-01-06T01:23:55;0.40;99.90
15239;DHT22;7722;53.274;9.500;2024-01-06T01:26:22;0.40;99.90
15239;DHT22;7722;53.274;9.500;2024-01-06T01:28:49;0.40;99.90
15239;DHT22;7722;53.274;9.500;2024-01-06T01:31:16;0.40;99.90
15239;DHT22;7722;53.274;9.500;2024-01-06T01:33:43;0.40;99.90
15239;DHT22;7722;53.274;9.500;2024-01-06T01:36:12;0.40;99.90
15239;DHT22;7722;53.274;9.500;2024-01-06T01:38:39;0.40;99.90
15239;DHT22;7722;53.274;9.500;2024-01-06T01:41:06;0.40;99.90
15239;DHT22;7722;53.274;9.500;2024-01-06T01:43:33;0.50;99.90
15239;DHT22;7722;53.274;9.500;2024-01-06T01:46:01;0.50;99.90
15239;DHT22;7722;53.274;9.500;2024-01-06T01:48:28;0.40;99.90
15239;DHT22;7722;53.274;9.500;2024-01-06T01:50:55;0.50;99.90
15239;DHT22;7722;53.274;9.500;2024-01-06T01:53:24;0.50;99.90
15239;DHT22;7722;53.274;9.500;2024-01-06T01:55:52;0.40;99.90
15239;DHT22;7722;53.274;9.500;2024-01-06T01:58:20;0.50;99.90
15239;DHT22;7722;53.274;9.500;2024-01-06T02:00:47;0.40;99.90
15239;DHT22;7722;53.274;9.500;2024-01-06T02:03:14;0.50;99.90
15239;DHT22;7722;53.274;9.500;2024-01-06T02:05:42;0.50;99.90
15239;DHT22;7722;53.274;9.500;2024-01-06T02:08:10;0.40;99.90
15239;DHT22;7722;53.274;9.500;2024-01-06T02:10:38;0.40;99.90
15239;DHT22;7722;53.274;9.500;2024-01-06T02:13:09;0.40;99.90
15239;DHT22;7722;53.274;9.500;2024-01-06T02:15:36;0.40;99.90
15239;DHT22;7722;53.274;9.500;2024-01-06T02:18:04;0.40;99.90
15239;DHT22;7722;53.274;9.500;2024-01-06T02:20:32;0.50;99.90
15239;DHT22;7722;53.274;9.500;2024-01-06T02:23:00;0.40;99.90
15239;DHT22;7722;53.274;9.500;2024-01-06T02:25:27;0.40;99.90
15239;DHT22;7722;53.274;9.500;2024-01-06T02:27:55;0.40;99.90
15239;DHT22;7722;53.274;9.500;2024-01-06T02:30:22;0.40;99.90
15239;DHT22;7722;53.274;9.500;2024-01-06T02:32:49;0.40;99.90
15239;DHT22;7722;53.274;9.500;2024-01-06T02:35:16;0.50;99.90
15239;DHT22;7722;53.274;9.500;2024-01-06T02:37:43;0.60;99.90
15239;DHT22;7722;53.274;9.500;2024-01-06T02:40:13;0.50;99.90
15239;DHT22;7722;53.274;9.500;2024-01-06T02:42:41;0.50;99.90
15239;DHT22;7722;53.274;9.500;2024-01-06T02:45:08;0.50;99.90
15239;DHT22;7722;53.274;9.500;2024-01-06T02:47:36;0.50;99.90
15239;DHT22;7722;53.274;9.500;2024-01-06T02:50:04;0.50;99.90
15239;DHT22;7722;53.274;9.500;2024-01-06T02:52:31;0.50;99.90
15239;DHT22;7722;53.274;9.500;2024-01-06T02:54:58;0.50;99.90
15239;DHT22;7722;53.274;9.500;2024-01-06T02:57:28;0.50;99.90
15239;DHT22;7722;53.274;9.500;2024-01-06T02:59:55;0.50;99.90
15239;DHT22;7722;53.274;9.500;2024-01-06T03:02:22;0.50;99.90
15239;DHT22;7722;53.274;9.500;2024-01-06T03:04:49;0.60;99.90
15239;DHT22;7722;53.274;9.500;2024-01-06T03:07:16;0.50;99.90
15239;DHT22;7722;53.274;9.500;2024-01-06T03:09:44;0.50;99.90
15239;DHT22;7722;53.274;9.500;2024-01-06T03:12:11;0.50;99.90
15239;DHT22;7722;53.274;9.500;2024-01-06T03:14:39;0.60;99.90
15239;DHT22;7722;53.274;9.500;2024-01-06T03:17:06;0.60;99.90
15239;DHT22;7722;53.274;9.500;2024-01-06T03:19:36;0.60;99.90
15239;DHT22;7722;53.274;9.500;2024-01-06T03:22:03;0.60;99.90
15239;DHT22;7722;53.274;9.500;2024-01-06T03:24:30;0.60;99.90
15239;DHT22;7722;53.274;9.500;2024-01-06T03:26:57;0.60;99.90
15239;DHT22;7722;53.274;9.500;2024-01-06T03:29:25;0.60;99.90
15239;DHT22;7722;53.274;9.500;2024-01-06T03:31:53;0.50;99.90
15239;DHT22;7722;53.274;9.500;2024-01-06T03:34:20;0.60;99.90
15239;DHT22;7722;53.274;9.500;2024-01-06T03:36:48;0.50;99.90
15239;DHT22;7722;53.274;9.500;2024-01-06T03:39:15;0.50;99.90
15239;DHT22;7722;53.274;9.500;2024-01-06T03:41:42;0.50;99.90
15239;DHT22;7722;53.274;9.500;2024-01-06T03:44:09;0.50;99.90
15239;DHT22;7722;53.274;9.500;2024-01-06T03:46:37;0.50;99.90
15239;DHT22;7722;53.274;9.500;2024-01-06T03:49:05;0.50;99.90
15239;DHT22;7722;53.274;9.500;2024-01-06T03:51:33;0.50;99.90
15239;DHT22;7722;53.274;9.500;2024-01-06T03:54:00;0.40;99.90
15239;DHT22;7722;53.274;9.500;2024-01-06T03:56:27;0.50;99.90
15239;DHT22;7722;53.274;9.500;2024-01-06T03:58:54;0.40;99.90
15239;DHT22;7722;53.274;9.500;2024-01-06T04:01:21;0.50;99.90
15239;DHT22;7722;53.274;9.500;2024-01-06T04:03:48;0.50;99.90
15239;DHT22;7722;53.274;9.500;2024-01-06T04:06:17;0.50;99.90
15239;DHT22;7722;53.274;9.500;2024-01-06T04:08:44;0.40;99.90
15239;DHT22;7722;53.274;9.500;2024-01-06T04:11:11;0.40;99.90
15239;DHT22;7722;53.274;9.500;2024-01-06T04:13:38;0.40;99.90
15239;DHT22;7722;53.274;9.500;2024-01-06T04:16:05;0.30;99.90
15239;DHT22;7722;53.274;9.500;2024-01-06T04:18:32;0.30;99.90
15239;DHT22;7722;53.274;9.500;2024-01-06T04:21:00;0.40;99.90
15239;DHT22;7722;53.274;9.500;2024-01-06T04:23:28;0.30;99.90
15239;DHT22;7722;53.274;9.500;2024-01-06T04:25:55;0.30;99.90
15239;DHT22;7722;53.274;9.500;2024-01-06T04:28:22;0.30;99.90
15239;DHT22;7722;53.274;9.500;2024-01-06T04:30:51;0.40;99.90
15239;DHT22;7722;53.274;9.500;2024-01-06T04:33:18;0.30;99.90
15239;DHT22;7722;53.274;9.500;2024-01-06T04:35:45;0.40;99.90
15239;DHT22;7722;53.274;9.500;2024-01-06T04:38:13;0.40;99.90
15239;DHT22;7722;53.274;9.500;2024-01-06T04:40:41;0.40;99.90
15239;DHT22;7722;53.274;9.500;2024-01-06T04:43:08;0.30;99.90
15239;DHT22;7722;53.274;9.500;2024-01-06T04:45:35;0.40;99.90
15239;DHT22;7722;53.274;9.500;2024-01-06T04:48:04;0.30;99.90
15239;DHT22;7722;53.274;9.500;2024-01-06T04:50:31;0.40;99.90
15239;DHT22;7722;53.274;9.500;2024-01-06T04:52:58;0.30;99.90
15239;DHT22;7722;53.274;9.500;2024-01-06T04:55:26;0.40;99.90
15239;DHT22;7722;53.274;9.500;2024-01-06T04:57:55;0.20;99.90
15239;DHT22;7722;53.274;9.500;2024-01-06T05:00:22;0.20;99.90
15239;DHT22;7722;53.274;9.500;2024-01-06T05:02:49;0.20;99.90
15239;DHT22;7722;53.274;9.500;2024-01-06T05:05:17;0.20;99.90
15239;DHT22;7722;53.274;9.500;2024-01-06T05:07:44;0.20;99.90
15239;DHT22;7722;53.274;9.500;2024-01-06T05:10:11;0.30;99.90
15239;DHT22;7722;53.274;9.500;2024-01-06T05:12:38;0.40;99.90
15239;DHT22;7722;53.274;9.500;2024-01-06T05:15:08;0.30;99.90
15239;DHT22;7722;53.274;9.500;2024-01-06T05:17:35;0.30;99.90
15239;DHT22;7722;53.274;9.500;2024-01-06T05:20:03;0.30;99.90
15239;DHT22;7722;53.274;9.500;2024-01-06T05:22:30;0.20;99.90
15239;DHT22;7722;53.274;9.500;2024-01-06T05:24:58;0.30;99.90
15239;DHT22;7722;53.274;9.500;2024-01-06T05:27:25;0.30;99.90
15239;DHT22;7722;53.274;9.500;2024-01-06T05:29:52;0.20;99.90
15239;DHT22;7722;53.274;9.500;2024-01-06T05:32:20;0.10;99.90
15239;DHT22;7722;53.274;9.500;2024-01-06T05:34:48;0.20;99.90
15239;DHT22;7722;53.274;9.500;2024-01-06T05:37:16;0.20;99.90
15239;DHT22;7722;53.274;9.500;2024-01-06T05:39:43;0.20;99.90
15239;DHT22;7722;53.274;9.500;2024-01-06T05:42:11;0.20;99.90
15239;DHT22;7722;53.274;9.500;2024-01-06T05:44:37;0.20;99.90
15239;DHT22;7722;53.274;9.500;2024-01-06T05:47:04;0.10;99.90
15239;DHT22;7722;53.274;9.500;2024-01-06T05:49:33;0.20;99.90
15239;DHT22;7722;53.274;9.500;2024-01-06T05:52:01;0.20;99.90
15239;DHT22;7722;53.274;9.500;2024-01-06T05:54:28;0.20;99.90
15239;DHT22;7722;53.274;9.500;2024-01-06T05:56:55;0.20;99.90
15239;DHT22;7722;53.274;9.500;2024-01-06T05:59:23;0.20;99.90
15239;DHT22;7722;53.274;9.500;2024-01-06T06:01:50;0.30;99.90
15239;DHT22;7722;53.274;9.500;2024-01-06T06:04:18;0.30;99.90
15239;DHT22;7722;53.274;9.500;2024-01-06T06:06:46;0.30;99.90
15239;DHT22;7722;53.274;9.500;2024-01-06T06:09:14;0.30;99.90
15239;DHT22;7722;53.274;9.500;2024-01-06T06:11:41;0.20;99.90
15239;DHT22;7722;53.274;9.500;2024-01-06T06:14:08;0.10;99.90
15239;DHT22;7722;53.274;9.500;2024-01-06T06:16:36;0.20;99.90
15239;DHT22;7722;53.274;9.500;2024-01-06T06:19:03;0.20;99.90
15239;DHT22;7722;53.274;9.500;2024-01-06T06:21:30;0.20;99.90
15239;DHT22;7722;53.274;9.500;2024-01-06T06:23:59;0.20;99.90
15239;DHT22;7722;53.274;9.500;2024-01-06T06:26:26;0.20;99.90
15239;DHT22;7722;53.274;9.500;2024-01-06T06:28:54;0.10;99.90
15239;DHT22;7722;53.274;9.500;2024-01-06T06:31:21;0.10;99.90
15239;DHT22;7722;53.274;9.500;2024-01-06T06:33:48;0.10;99.90
15239;DHT22;7722;53.274;9.500;2024-01-06T06:36:15;0.10;99.90
15239;DHT22;7722;53.274;9.500;2024-01-06T06:38:42;0.10;99.90
15239;DHT22;7722;53.274;9.500;2024-01-06T06:41:10;0.00;99.90
15239;DHT22;7722;53.274;9.500;2024-01-06T06:43:38;0.00;99.90
15239;DHT22;7722;53.274;9.500;2024-01-06T06:46:05;0.10;99.90
15239;DHT22;7722;53.274;9.500;2024-01-06T06:48:32;0.10;99.90
15239;DHT22;7722;53.274;9.500;2024-01-06T06:51:01;0.10;99.90
15239;DHT22;7722;53.274;9.500;2024-01-06T06:53:28;0.20;99.90
15239;DHT22;7722;53.274;9.500;2024-01-06T06:55:55;0.10;99.90
15239;DHT22;7722;53.274;9.500;2024-01-06T06:58:24;0.00;99.90
15239;DHT22;7722;53.274;9.500;2024-01-06T07:00:51;0.10;99.90
15239;DHT22;7722;53.274;9.500;2024-01-06T07:03:20;0.20;99.90
15239;DHT22;7722;53.274;9.500;2024-01-06T07:05:47;0.20;99.90
15239;DHT22;7722;53.274;9.500;2024-01-06T07:08:14;0.20;99.90
15239;DHT22;7722;53.274;9.500;2024-01-06T07:10:41;0.10;99.90
15239;DHT22;7722;53.274;9.500;2024-01-06T07:13:08;0.10;99.90
15239;DHT22;7722;53.274;9.500;2024-01-06T07:15:37;0.00;99.90
15239;DHT22;7722;53.274;9.500;2024-01-06T07:18:04;0.10;99.90
15239;DHT22;7722;53.274;9.500;2024-01-06T07:20:32;0.10;99.90
15239;DHT22;7722;53.274;9.500;2024-01-06T07:22:59;0.10;99.90
15239;DHT22;7722;53.274;9.500;2024-01-06T07:25:28;0.00;99.90
15239;DHT22;7722;53.274;9.500;2024-01-06T07:27:56;-0.10;99.90
15239;DHT22;7722;53.274;9.500;2024-01-06T07:30:23;-0.10;99.90
15239;DHT22;7722;53.274;9.500;2024-01-06T07:32:51;-0.10;99.90
15239;DHT22;7722;53.274;9.500;2024-01-06T07:35:19;0.00;99.90
15239;DHT22;7722;53.274;9.500;2024-01-06T07:37:46;-0.10;99.90
15239;DHT22;7722;53.274;9.500;2024-01-06T07:40:13;-0.10;99.90
15239;DHT22;7722;53.274;9.500;2024-01-06T07:42:42;-0.10;99.90
15239;DHT22;7722;53.274;9.500;2024-01-06T07:45:09;0.00;99.90
15239;DHT22;7722;53.274;9.500;2024-01-06T07:47:36;-0.10;99.90
15239;DHT22;7722;53.274;9.500;2024-01-06T07:50:06;0.00;99.90
15239;DHT22;7722;53.274;9.500;2024-01-06T07:52:34;0.00;99.90
15239;DHT22;7722;53.274;9.500;2024-01-06T07:55:01;-0.10;99.90
15239;DHT22;7722;53.274;9.500;2024-01-06T07:57:28;0.00;99.90
15239;DHT22;7722;53.274;9.500;2024-01-06T07:59:55;0.00;99.90
15239;DHT22;7722;53.274;9.500;2024-01-06T08:02:22;0.00;99.90
15239;DHT22;7722;53.274;9.500;2024-01-06T08:04:49;0.00;99.90
15239;DHT22;7722;53.274;9.500;2024-01-06T08:07:18;0.10;99.90
15239;DHT22;7722;53.274;9.500;2024-01-06T08:09:45;0.10;99.90
15239;DHT22;7722;53.274;9.500;2024-01-06T08:12:12;0.00;99.90
15239;DHT22;7722;53.274;9.500;2024-01-06T08:14:39;0.10;99.90
15239;DHT22;7722;53.274;9.500;2024-01-06T08:17:06;0.10;99.90
15239;DHT22;7722;53.274;9.500;2024-01-06T08:19:33;0.10;99.90
15239;DHT22;7722;53.274;9.500;2024-01-06T08:22:01;0.10;99.90
15239;DHT22;7722;53.274;9.500;2024-01-06T08:24:30;0.00;99.90
15239;DHT22;7722;53.274;9.500;2024-01-06T08:26:57;0.00;99.90
15239;DHT22;7722;53.274;9.500;2024-01-06T08:29:24;0.00;99.90
15239;DHT22;7722;53.274;9.500;2024-01-06T08:31:51;0.00;99.90
15239;DHT22;7722;53.274;9.500;2024-01-06T08:34:20;0.00;99.90
15239;DHT22;7722;53.274;9.500;2024-01-06T08:36:47;0.00;99.90
15239;DHT22;7722;53.274;9.500;2024-01-06T08:39:14;0.00;99.90
15239;DHT22;7722;53.274;9.500;2024-01-06T08:41:44;0.10;99.90
15239;DHT22;7722;53.274;9.500;2024-01-06T08:44:12;0.10;99.90
15239;DHT22;7722;53.274;9.500;2024-01-06T08:46:39;0.10;99.90
15239;DHT22;7722;53.274;9.500;2024-01-06T08:49:06;0.20;99.90
15239;DHT22;7722;53.274;9.500;2024-01-06T08:51:33;0.10;99.90
15239;DHT22;7722;53.274;9.500;2024-01-06T08:54:01;0.00;99.90
15239;DHT22;7722;53.274;9.500;2024-01-06T08:56:31;0.00;99.90
15239;DHT22;7722;53.274;9.500;2024-01-06T08:59:00;0.00;99.90
15239;DHT22;7722;53.274;9.500;2024-01-06T09:01:27;0.00;99.90
15239;DHT22;7722;53.274;9.500;2024-01-06T09:03:54;0.10;99.90
15239;DHT22;7722;53.274;9.500;2024-01-06T09:06:21;0.10;99.90
15239;DHT22;7722;53.274;9.500;2024-01-06T09:08:48;0.10;99.90
15239;DHT22;7722;53.274;9.500;2024-01-06T09:11:15;0.10;99.90
15239;DHT22;7722;53.274;9.500;2024-01-06T09:13:42;0.10;99.90
15239;DHT22;7722;53.274;9.500;2024-01-06T09:16:11;0.00;99.90
15239;DHT22;7722;53.274;9.500;2024-01-06T09:18:38;0.00;99.90
15239;DHT22;7722;53.274;9.500;2024-01-06T09:21:06;0.00;99.90
15239;DHT22;7722;53.274;9.500;2024-01-06T09:23:33;0.00;99.90
15239;DHT22;7722;53.274;9.500;2024-01-06T09:26:00;0.10;99.90
15239;DHT22;7722;53.274;9.500;2024-01-06T09:28:27;0.00;99.90
15239;DHT22;7722;53.274;9.500;2024-01-06T09:30:54;0.00;99.90
15239;DHT22;7722;53.274;9.500;2024-01-06T09:33:23;-0.10;99.90
15239;DHT22;7722;53.274;9.500;2024-01-06T09:35:50;-0.10;99.90
15239;DHT22;7722;53.274;9.500;2024-01-06T09:38:18;0.00;99.90
15239;DHT22;7722;53.274;9.500;2024-01-06T09:40:45;0.00;99.90
15239;DHT22;7722;53.274;9.500;2024-01-06T09:43:12;0.00;99.90
15239;DHT22;7722;53.274;9.500;2024-01-06T09:45:40;-0.10;99.90
15239;DHT22;7722;53.274;9.500;2024-01-06T09:48:10;0.10;99.90
15239;DHT22;7722;53.274;9.500;2024-01-06T09:50:41;-0.10;99.90
15239;DHT22;7722;53.274;9.500;2024-01-06T09:53:11;0.10;99.90
15239;DHT22;7722;53.274;9.500;2024-01-06T09:55:38;0.00;99.90
15239;DHT22;7722;53.274;9.500;2024-01-06T09:58:06;0.00;99.90
15239;DHT22;7722;53.274;9.500;2024-01-06T10:00:33;0.10;99.90
15239;DHT22;7722;53.274;9.500;2024-01-06T10:03:00;0.00;99.90
15239;DHT22;7722;53.274;9.500;2024-01-06T10:05:27;0.00;99.90
15239;DHT22;7722;53.274;9.500;2024-01-06T10:07:56;0.00;99.90
15239;DHT22;7722;53.274;9.500;2024-01-06T10:10:23;-0.10;99.90
15239;DHT22;7722;53.274;9.500;2024-01-06T10:12:53;-0.10;99.90
15239;DHT22;7722;53.274;9.500;2024-01-06T10:15:21;-0.10;99.90
15239;DHT22;7722;53.274;9.500;2024-01-06T10:17:48;-0.10;99.90
15239;DHT22;7722;53.274;9.500;2024-01-06T10:20:16;0.00;99.90
15239;DHT22;7722;53.274;9.500;2024-01-06T10:22:45;0.10;99.90
15239;DHT22;7722;53.274;9.500;2024-01-06T10:25:14;0.00;99.90
15239;DHT22;7722;53.274;9.500;2024-01-06T10:27:41;0.10;99.90
15239;DHT22;7722;53.274;9.500;2024-01-06T10:30:09;0.10;99.90
15239;DHT22;7722;53.274;9.500;2024-01-06T10:32:39;0.30;99.90
15239;DHT22;7722;53.274;9.500;2024-01-06T10:35:07;0.30;99.90
15239;DHT22;7722;53.274;9.500;2024-01-06T10:37:36;0.20;99.90
15239;DHT22;7722;53.274;9.500;2024-01-06T10:40:08;0.20;99.90
15239;DHT22;7722;53.274;9.500;2024-01-06T10:42:38;0.00;99.90
15239;DHT22;7722;53.274;9.500;2024-01-06T10:45:07;0.10;99.90
15239;DHT22;7722;53.274;9.500;2024-01-06T10:47:35;0.10;99.90
15239;DHT22;7722;53.274;9.500;2024-01-06T10:50:03;0.00;99.90
15239;DHT22;7722;53.274;9.500;2024-01-06T10:52:31;-0.10;99.90
15239;DHT22;7722;53.274;9.500;2024-01-06T10:54:58;-0.10;99.90
15239;DHT22;7722;53.274;9.500;2024-01-06T10:57:26;0.00;99.90
15239;DHT22;7722;53.274;9.500;2024-01-06T10:59:59;0.10;99.90
15239;DHT22;7722;53.274;9.500;2024-01-06T11:02:27;0.10;99.90
15239;DHT22;7722;53.274;9.500;2024-01-06T11:04:54;0.00;99.90
15239;DHT22;7722;53.274;9.500;2024-01-06T11:07:23;0.00;99.90
15239;DHT22;7722;53.274;9.500;2024-01-06T11:09:56;-0.10;99.90
15239;DHT22;7722;53.274;9.500;2024-01-06T11:12:24;0.00;99.90
15239;DHT22;7722;53.274;9.500;2024-01-06T11:14:52;0.00;99.90
15239;DHT22;7722;53.274;9.500;2024-01-06T11:17:51;0.10;99.90
15239;DHT22;7722;53.274;9.500;2024-01-06T11:20:24;0.10;99.90
15239;DHT22;7722;53.274;9.500;2024-01-06T11:22:52;0.10;99.90
15239;DHT22;7722;53.274;9.500;2024-01-06T11:25:21;0.00;99.90
15239;DHT22;7722;53.274;9.500;2024-01-06T11:27:49;0.00;99.90
15239;DHT22;7722;53.274;9.500;2024-01-06T11:30:24;0.00;99.90
15239;DHT22;7722;53.274;9.500;2024-01-06T11:32:53;0.00;99.90
15239;DHT22;7722;53.274;9.500;2024-01-06T11:35:21;0.00;99.90
15239;DHT22;7722;53.274;9.500;2024-01-06T11:37:54;0.10;99.90
15239;DHT22;7722;53.274;9.500;2024-01-06T11:40:30;0.10;99.90
15239;DHT22;7722;53.274;9.500;2024-01-06T11:42:59;0.10;99.90
15239;DHT22;7722;53.274;9.500;2024-01-06T11:45:28;0.00;99.90
15239;DHT22;7722;53.274;9.500;2024-01-06T11:47:58;-0.10;99.90
15239;DHT22;7722;53.274;9.500;2024-01-06T11:50:26;0.10;99.90
15239;DHT22;7722;53.274;9.500;2024-01-06T11:52:53;0.10;99.90
15239;DHT22;7722;53.274;9.500;2024-01-06T11:55:20;0.00;99.90
15239;DHT22;7722;53.274;9.500;2024-01-06T11:57:48;0.00;99.90
15239;DHT22;7722;53.274;9.500;2024-01-06T12:00:16;0.00;99.90
15239;DHT22;7722;53.274;9.500;2024-01-06T12:02:44;-0.10;99.90
15239;DHT22;7722;53.274;9.500;2024-01-06T12:05:16;0.00;99.90
15239;DHT22;7722;53.274;9.500;2024-01-06T12:07:52;0.00;99.90
15239;DHT22;7722;53.274;9.500;2024-01-06T12:10:20;0.00;99.90
15239;DHT22;7722;53.274;9.500;2024-01-06T12:12:55;0.10;99.90
15239;DHT22;7722;53.274;9.500;2024-01-06T12:15:24;0.00;99.90
15239;DHT22;7722;53.274;9.500;2024-01-06T12:17:52;0.00;99.90
15239;DHT22;7722;53.274;9.500;2024-01-06T12:20:21;0.10;99.90
15239;DHT22;7722;53.274;9.500;2024-01-06T12:22:48;0.00;99.90
15239;DHT22;7722;53.274;9.500;2024-01-06T12:25:16;0.00;99.90
15239;DHT22;7722;53.274;9.500;2024-01-06T12:27:43;0.00;99.90
15239;DHT22;7722;53.274;9.500;2024-01-06T12:30:14;-0.10;99.90
15239;DHT22;7722;53.274;9.500;2024-01-06T12:32:45;0.00;99.90
15239;DHT22;7722;53.274;9.500;2024-01-06T12:35:13;0.00;99.90
15239;DHT22;7722;53.274;9.500;2024-01-06T12:37:43;-0.10;99.90
15239;DHT22;7722;53.274;9.500;2024-01-06T12:40:13;-0.10;99.90
15239;DHT22;7722;53.274;9.500;2024-01-06T12:42:42;0.00;99.90
15239;DHT22;7722;53.274;9.500;2024-01-06T12:45:10;0.00;99.90
15239;DHT22;7722;53.274;9.500;2024-01-06T12:47:38;0.10;99.90
15239;DHT22;7722;53.274;9.500;2024-01-06T12:50:07;0.10;99.90
15239;DHT22;7722;53.274;9.500;2024-01-06T12:52:34;0.10;99.90
15239;DHT22;7722;53.274;9.500;2024-01-06T12:55:03;0.10;99.90
15239;DHT22;7722;53.274;9.500;2024-01-06T12:57:30;0.00;99.90
15239;DHT22;7722;53.274;9.500;2024-01-06T12:59:57;0.00;99.90
15239;DHT22;7722;53.274;9.500;2024-01-06T13:02:25;0.00;99.90
15239;DHT22;7722;53.274;9.500;2024-01-06T13:04:52;0.00;99.90
15239;DHT22;7722;53.274;9.500;2024-01-06T13:07:19;0.10;99.90
15239;DHT22;7722;53.274;9.500;2024-01-06T13:09:48;0.00;99.90
15239;DHT22;7722;53.274;9.500;2024-01-06T13:12:17;0.20;99.90
15239;DHT22;7722;53.274;9.500;2024-01-06T13:14:45;0.20;99.90
15239;DHT22;7722;53.274;9.500;2024-01-06T13:17:13;0.20;99.90
15239;DHT22;7722;53.274;9.500;2024-01-06T13:19:40;0.10;99.90
15239;DHT22;7722;53.274;9.500;2024-01-06T13:22:07;0.10;99.90
15239;DHT22;7722;53.274;9.500;2024-01-06T13:24:35;0.00;99.90
15239;DHT22;7722;53.274;9.500;2024-01-06T13:27:02;-0.20;99.90
15239;DHT22;7722;53.274;9.500;2024-01-06T13:29:32;-0.10;99.90
15239;DHT22;7722;53.274;9.500;2024-01-06T13:32:00;-0.10;99.90
15239;DHT22;7722;53.274;9.500;2024-01-06T13:34:27;-0.10;99.90
15239;DHT22;7722;53.274;9.500;2024-01-06T13:36:55;0.00;99.90
15239;DHT22;7722;53.274;9.500;2024-01-06T13:39:23;-0.10;99.90
15239;DHT22;7722;53.274;9.500;2024-01-06T13:41:50;-0.10;99.90
15239;DHT22;7722;53.274;9.500;2024-01-06T13:44:17;-0.20;99.90
15239;DHT22;7722;53.274;9.500;2024-01-06T13:46:47;-0.20;99.90
15239;DHT22;7722;53.274;9.500;2024-01-06T13:49:16;-0.10;99.90
15239;DHT22;7722;53.274;9.500;2024-01-06T13:51:44;-0.10;99.90
15239;DHT22;7722;53.274;9.500;2024-01-06T13:54:12;0.00;99.90
15239;DHT22;7722;53.274;9.500;2024-01-06T13:56:39;0.00;99.90
15239;DHT22;7722;53.274;9.500;2024-01-06T13:59:07;0.00;99.90
15239;DHT22;7722;53.274;9.500;2024-01-06T14:01:34;0.00;99.90
15239;DHT22;7722;53.274;9.500;2024-01-06T14:04:03;0.00;99.90
15239;DHT22;7722;53.274;9.500;2024-01-06T14:06:31;0.00;99.90
15239;DHT22;7722;53.274;9.500;2024-01-06T14:08:59;0.00;99.90
15239;DHT22;7722;53.274;9.500;2024-01-06T14:11:27;0.10;99.90
15239;DHT22;7722;53.274;9.500;2024-01-06T14:13:57;0.10;99.90
15239;DHT22;7722;53.274;9.500;2024-01-06T14:16:25;0.10;99.90
15239;DHT22;7722;53.274;9.500;2024-01-06T14:18:52;0.10;99.90
15239;DHT22;7722;53.274;9.500;2024-01-06T14:21:20;0.10;99.90
15239;DHT22;7722;53.274;9.500;2024-01-06T14:23:48;0.00;99.90
15239;DHT22;7722;53.274;9.500;2024-01-06T14:26:15;0.00;99.90
15239;DHT22;7722;53.274;9.500;2024-01-06T14:28:45;0.00;99.90
15239;DHT22;7722;53.274;9.500;2024-01-06T14:31:12;0.00;99.90
15239;DHT22;7722;53.274;9.500;2024-01-06T14:33:39;0.00;99.90
15239;DHT22;7722;53.274;9.500;2024-01-06T14:36:07;0.00;99.90
15239;DHT22;7722;53.274;9.500;2024-01-06T14:38:36;0.00;99.90
15239;DHT22;7722;53.274;9.500;2024-01-06T14:41:03;0.00;99.90
15239;DHT22;7722;53.274;9.500;2024-01-06T14:43:31;-0.10;99.90
15239;DHT22;7722;53.274;9.500;2024-01-06T14:45:58;-0.10;99.90
15239;DHT22;7722;53.274;9.500;2024-01-06T14:48:25;0.00;99.90
15239;DHT22;7722;53.274;9.500;2024-01-06T14:50:52;-0.20;99.90
15239;DHT22;7722;53.274;9.500;2024-01-06T14:53:19;-0.10;99.90
15239;DHT22;7722;53.274;9.500;2024-01-06T14:55:48;-0.30;99.90
15239;DHT22;7722;53.274;9.500;2024-01-06T14:58:15;-0.20;99.90
15239;DHT22;7722;53.274;9.500;2024-01-06T15:00:42;-0.20;99.90
15239;DHT22;7722;53.274;9.500;2024-01-06T15:03:10;-0.30;99.90
15239;DHT22;7722;53.274;9.500;2024-01-06T15:05:37;-0.30;99.90
15239;DHT22;7722;53.274;9.500;2024-01-06T15:08:05;-0.20;99.90
15239;DHT22;7722;53.274;9.500;2024-01-06T15:10:32;-0.20;99.90
15239;DHT22;7722;53.274;9.500;2024-01-06T15:13:01;-0.30;99.90
15239;DHT22;7722;53.274;9.500;2024-01-06T15:15:29;-0.30;99.90
15239;DHT22;7722;53.274;9.500;2024-01-06T15:17:56;-0.30;99.90
15239;DHT22;7722;53.274;9.500;2024-01-06T15:20:23;-0.30;99.90
15239;DHT22;7722;53.274;9.500;2024-01-06T15:22:50;-0.30;99.90
15239;DHT22;7722;53.274;9.500;2024-01-06T15:25:17;-0.40;99.90
15239;DHT22;7722;53.274;9.500;2024-01-06T15:27:45;-0.30;99.90
15239;DHT22;7722;53.274;9.500;2024-01-06T15:30:14;-0.30;99.90
15239;DHT22;7722;53.274;9.500;2024-01-06T15:32:44;-0.30;99.90
15239;DHT22;7722;53.274;9.500;2024-01-06T15:35:11;-0.40;99.90
15239;DHT22;7722;53.274;9.500;2024-01-06T15:37:38;-0.40;99.90
15239;DHT22;7722;53.274;9.500;2024-01-06T15:40:07;-0.30;99.90
15239;DHT22;7722;53.274;9.500;2024-01-06T15:42:35;-0.40;99.90
15239;DHT22;7722;53.274;9.500;2024-01-06T15:45:02;-0.30;99.90
15239;DHT22;7722;53.274;9.500;2024-01-06T15:47:30;-0.30;99.90
15239;DHT22;7722;53.274;9.500;2024-01-06T15:49:58;-0.40;99.90
15239;DHT22;7722;53.274;9.500;2024-01-06T15:52:25;-0.30;99.90
15239;DHT22;7722;53.274;9.500;2024-01-06T15:54:52;-0.30;99.90
15239;DHT22;7722;53.274;9.500;2024-01-06T15:57:19;-0.30;99.90
15239;DHT22;7722;53.274;9.500;2024-01-06T15:59:46;-0.30;99.90
15239;DHT22;7722;53.274;9.500;2024-01-06T16:02:13;-0.30;99.90
15239;DHT22;7722;53.274;9.500;2024-01-06T16:04:42;-0.30;99.90
15239;DHT22;7722;53.274;9.500;2024-01-06T16:07:09;-0.30;99.90